ROMMA est une association bénévole à but non lucratif. Votre soutien est indispensable : ADHERER à ROMMA ou FAIRE un DON

Taninges - (74, Haute-Savoie)

Vallée du Giffre (635 m)   Longitude: 06° 35' 38" E   Latitude: 46° 06' 21" N Station romma n°98
 

Détail journalier du     <<     >>

Température Precipitation Humidité Pression Vent Dir Rafale Dir. rafale Ensol.
Heure (°C) (mm) (%) (hPa) (km/h) (km/h) (min)
01:00 17.208810121S5S0
02:00 16.7089101103ENE0
03:00 16.108910111NO5NNE0
04:00 15.509210111ENE6NE0
05:00 15.109410111ENE3ENE0
06:00 15.509310111SSE5SSE0
07:00 15.809310111SSE5S0
08:00 16.6093101203E0
09:00 18.108810122E8SSO0
10:00 21.907410121OSO15SSO15
11:00 23.706910114SE13SE30
12:00 24.806410115SE11SE10
13:00 26.806010103S8SE30
14:00 28.505310096SSO19SO40
15:00 28.1048100910NO27NO15
16:00 28.104810099ONO26NO40
17:00 28.704910088O21SO40
18:00 27.405010088ONO21ONO15
19:00 24.806810093O10N0
20:00 19.13.688101312ONO42OSO0
21:00 17.92.29210136E18E0
22:00 17.80.48710127NE19ENE0
23:00 17.009110123ENE10E0
minuit 16.809210113SE16E0

Graphique du 06-08-2019

 

Serveur OMMA